ON, Ontario

2:02 AM MDT on 四月 23, 2017 (GMT -0600)
Calgary International | | Change Station

高度 3556 ft 51.12 °N, 114.02 °W | Updated 1 hour ago

Light Rain
小雨
36 °F
体感気温 27 °F
14
風 変数 風 から 東南東
Gusts 23 Mph

今日
高い -- | 低 -- °F
--% 降水確率
昨日
高い -- | 低 -- °F
Precip. -- インチ
気圧 30.03 インチ
視程 5.0 マイル
やや曇 1000 ft
曇 2000 ft
体感気温(寒さ) 27 °F
露点温度 34 °F
湿度 93%
降水 0.00 インチ
積雪深 利用不可。
6:23 AM 8:45 PM
二十六夜, 13% visible
METAR CYYC 230700Z 12012G20KT 5SM -RA SCT010 OVC020 02/01 A2992 RMK ST3SC5 SLP167
気圧 30.03 インチ
視程 5.0 マイル
やや曇 1000 ft
曇 2000 ft
体感気温(寒さ) 27 °F
露点温度 34 °F
湿度 93%
降水 0.00 インチ
積雪深 利用不可。
6:23 AM 8:45 PM
二十六夜, 13% visible
METAR CYYC 230700Z 12012G20KT 5SM -RA SCT010 OVC020 02/01 A2992 RMK ST3SC5 SLP167

Get Severe Weather Alerts

Thanks for signing up!

Be on the lookout for a verification email in your inbox.

You'll start receiving the daily forecast at 8 AM.

×

10-Day Weather Forecast

Almanac

天文

Apr. 23, 2017 入り
実時間
常用薄明
航海薄明
天文薄明
可視光の長さ
可照時間
Tomorrow will be .
, % of the Moon is Illuminated

今日の極値

Country Highs Country Lows

Community

WunderBlog® & News

Nearby

空気品質

  空気品質 大気質指数 汚染物質
Not available.

積雪深

Station Depth 高度

地震活動

Distance Mag. Time & Date
Minimum magnitude displayed is 2.5.

沿岸の水温

地名 気温

Stations

最寄りの気象観測所

観測所位置 温度 体感気温(寒さ) 露点温度 湿度 Precip. 高度 更新日時 タイプする
                   

Watches & Warnings

There are currently no watches in effect.